Hamnavoe — VSTY7 — position and weather

sailwx.info

Track history (hours):
 
Tides and Currents Weather Stations Pressure Air Temp Water Temp Dewpoint Dewpoint Depression Visibility Wind Speed Wind Dir Waves Ship Positions

Hamnavoe

Operator: NorthLink Orkey & Shetland Ferries Ltd

Last reported at 2014-Jul-23 17:33 UTC. Time now 2014-Jul-23 18:09 UTC.
Position N 58°37' W 003°32'.

Length 112 m; draft 4.4 m.

Type: Ship. MMSI: 235449000.

Date/timePositionNaut miles runAvg speedWind from/ knotsBaromVisibWave heightAir tempDewpointWater temp
2014-Jul-23 17:33N 58°37' W 003°32'10 9.8
2014-Jul-23 16:33N 58°46' W 003°30'1313.0
2014-Jul-23 15:33N 58°58' W 003°18'0 0.0
2014-Jul-23 14:32N 58°58' W 003°18'0 0.0
2014-Jul-23 13:33N 58°58' W 003°18'1514.7
2014-Jul-23 12:33N 58°44' W 003°30'8 7.7
2014-Jul-23 11:31N 58°37' W 003°32'1515.1
2014-Jul-23 10:33N 58°51' W 003°27'8 8.4
2014-Jul-23 09:34N 58°58' W 003°18'7 7.4
2014-Jul-23 08:34N 58°52' W 003°27'1615.9
2014-Jul-23 07:33N 58°37' W 003°32'6 5.8
2014-Jul-23 06:33N 58°42' W 003°29'1616.1
2014-Jul-23 05:33N 58°57' W 003°17'1 0.8
2014-Jul-23 04:31N 58°58' W 003°18'0 0.0
2014-Jul-23 03:31N 58°58' W 003°18'0 0.0
2014-Jul-23 02:31N 58°58' W 003°18'0 0.0
2014-Jul-23 01:31N 58°58' W 003°18'0 0.0
2014-Jul-23 00:25N 58°58' W 003°18'0 0.0
2014-Jul-22 23:28N 58°58' W 003°18'0 0.0
2014-Jul-22 22:28N 58°58' W 003°18'0 0.0
2014-Jul-22 21:28N 58°58' W 003°18'0 0.0
2014-Jul-22 20:28N 58°58' W 003°18'0 0.0
2014-Jul-22 19:28N 58°58' W 003°18'1112.2
2014-Jul-22 18:33N 58°48' W 003°29'12 8.9
2014-Jul-22 17:15N 58°37' W 003°32'1014.0
2014-Jul-22 16:34N 58°46' W 003°29'1313.0
2014-Jul-22 15:33N 58°58' W 003°18'0 0.0
2014-Jul-22 14:33N 58°58' W 003°18'0 0.1
2014-Jul-22 13:33N 58°58' W 003°18'1515.3
2014-Jul-22 12:33N 58°44' W 003°30'7 7.1
2014-Jul-22 11:33N 58°37' W 003°32'1414.3
2014-Jul-22 10:33N 58°51' W 003°28'9 9.0
2014-Jul-22 09:33N 58°58' W 003°18'6 6.3
2014-Jul-22 08:33N 58°54' W 003°27'1717.2
2014-Jul-22 07:33N 58°37' W 003°32'6 5.7
2014-Jul-22 06:33N 58°42' W 003°30'1616.4
2014-Jul-22 05:33N 58°57' W 003°17'1 0.8
2014-Jul-22 04:33N 58°58' W 003°18'0 0.0
2014-Jul-22 03:33N 58°58' W 003°18'0 0.0
2014-Jul-22 02:33N 58°58' W 003°18'0 0.0
2014-Jul-22 01:33N 58°58' W 003°18'0 0.0
2014-Jul-22 00:33N 58°58' W 003°18'0 0.0
2014-Jul-21 23:33N 58°58' W 003°18'0 0.0
2014-Jul-21 22:33N 58°58' W 003°18'0 0.0
2014-Jul-21 21:33N 58°58' W 003°18'0 0.0
2014-Jul-21 20:33N 58°58' W 003°18'0 0.0
2014-Jul-21 20:18N 58°58' W 003°18'0 0.0
2014-Jul-21 19:33N 58°58' W 003°18'1312.6
2014-Jul-21 18:33N 58°47' W 003°29'10 9.8
2014-Jul-21 17:31N 58°37' W 003°32'1010.9
2014-Jul-21 16:34N 58°47' W 003°29'1212.4
2014-Jul-21 15:34N 58°58' W 003°18'0 0.0
2014-Jul-21 14:34N 58°58' W 003°18'1 1.2
2014-Jul-21 13:33N 58°57' W 003°19'1717.1
2014-Jul-21 12:33N 58°41' W 003°33'5 4.6
2014-Jul-21 11:33N 58°37' W 003°32'1313.5
2014-Jul-21 10:34N 58°50' W 003°28'9 9.3
2014-Jul-21 09:33N 58°58' W 003°18'7 6.8
2014-Jul-21 08:33N 58°53' W 003°27'1716.8
2014-Jul-21 07:33N 58°37' W 003°32'6 5.6
2014-Jul-21 06:33N 58°42' W 003°30'1616.5
2014-Jul-21 05:33N 58°57' W 003°18'1 0.5
2014-Jul-21 04:32N 58°58' W 003°18'0 0.0
2014-Jul-21 03:33N 58°58' W 003°18'0 0.0
2014-Jul-21 02:33N 58°58' W 003°18'0 0.0
2014-Jul-21 01:33N 58°58' W 003°18'0 0.0
2014-Jul-21 00:34N 58°58' W 003°18'0 0.0
2014-Jul-20 23:34N 58°58' W 003°18'0 0.0
2014-Jul-20 22:32N 58°58' W 003°18'0 0.0
2014-Jul-20 21:33N 58°58' W 003°18'0 0.0
2014-Jul-20 20:33N 58°58' W 003°18'0 0.0
2014-Jul-20 19:33N 58°58' W 003°18'1110.6
2014-Jul-20 18:33N 58°49' W 003°29'1212.4
2014-Jul-20 17:33N 58°37' W 003°32'9 8.6
2014-Jul-20 16:33N 58°45' W 003°30'1414.1
2014-Jul-20 15:33N 58°58' W 003°18'0 0.0
2014-Jul-20 14:31N 58°58' W 003°18'0 0.0
2014-Jul-20 13:28N 58°58' W 003°18'0 0.0
2014-Jul-20 12:33N 58°58' W 003°18'1212.0
2014-Jul-20 11:33N 58°47' W 003°29'11 9.6
2014-Jul-20 10:26N 58°37' W 003°32'0 0.0
2014-Jul-20 09:32N 58°37' W 003°32'1515.2
2014-Jul-20 08:33N 58°51' W 003°27'8 8.2
2014-Jul-20 07:33N 58°58' W 003°18'0 0.0
2014-Jul-20 06:33N 58°58' W 003°18'0 0.0
2014-Jul-20 05:33N 58°58' W 003°18'0 0.0
2014-Jul-20 04:33N 58°58' W 003°18'0 0.0
2014-Jul-20 03:33N 58°58' W 003°18'0 0.0
2014-Jul-20 02:33N 58°58' W 003°18'0 0.0
2014-Jul-20 01:33N 58°58' W 003°18'0 0.0
2014-Jul-20 00:33N 58°58' W 003°18'0 0.0
2014-Jul-19 23:33N 58°58' W 003°18'0 0.0
2014-Jul-19 22:33N 58°58' W 003°18'0 0.0
2014-Jul-19 21:33N 58°58' W 003°18'0 0.0
2014-Jul-19 20:32N 58°58' W 003°18'0 0.0
2014-Jul-19 19:33N 58°58' W 003°18'1413.9
2014-Jul-19 18:33N 58°45' W 003°30'9 8.8
2014-Jul-19 17:33N 58°37' W 003°32'1010.5
2014-Jul-19 16:34N 58°47' W 003°29'1212.3
2014-Jul-19 15:33N 58°58' W 003°18'0 0.0
2014-Jul-19 14:33N 58°58' W 003°18'1 1.2
2014-Jul-19 13:33N 58°57' W 003°16'1615.9
2014-Jul-19 12:33N 58°43' W 003°30'6 6.0
2014-Jul-19 11:33N 58°37' W 003°32'1515.4
2014-Jul-19 10:33N 58°52' W 003°27'8 7.9
2014-Jul-19 09:33N 58°58' W 003°18'7 6.5
2014-Jul-19 08:33N 58°53' W 003°27'1715.1
2014-Jul-19 07:25N 58°37' W 003°32'7 8.2
2014-Jul-19 06:33N 58°44' W 003°30'1515.2
2014-Jul-19 05:33N 58°58' W 003°18'0 0.2
2014-Jul-19 04:31N 58°58' W 003°18'0 0.0
2014-Jul-19 03:25N 58°58' W 003°18'0 0.0
2014-Jul-19 02:31N 58°58' W 003°18'0 0.0
2014-Jul-19 01:31N 58°58' W 003°18'0 0.0
2014-Jul-19 00:31N 58°58' W 003°18'0 0.0
2014-Jul-18 23:31N 58°58' W 003°18'0 0.0
2014-Jul-18 22:31N 58°58' W 003°18'0 0.0
2014-Jul-18 21:31N 58°58' W 003°18'0 0.0
2014-Jul-18 20:31N 58°58' W 003°18'0 0.0
2014-Jul-18 19:31N 58°58' W 003°18'1212.6
2014-Jul-18 18:33N 58°47' W 003°29'1110.7
2014-Jul-18 17:33N 58°37' W 003°32'1111.5
2014-Jul-18 16:33N 58°48' W 003°28'1110.8
2014-Jul-18 15:30N 58°58' W 003°18'0 0.0
2014-Jul-18 14:30N 58°58' W 003°18'1 0.6
2014-Jul-18 13:33N 58°57' W 003°18'1615.8
2014-Jul-18 12:33N 58°43' W 003°30'6 6.1
2014-Jul-18 11:31N 58°37' W 003°32'1616.8
2014-Jul-18 10:33N 58°53' W 003°28'7 7.3
2014-Jul-18 09:33N 58°58' W 003°18'8 8.5
2014-Jul-18 08:33N 58°51' W 003°28'8 3.8
2014-Jul-18 06:33N 58°44' W 003°30'1515.2
2014-Jul-18 05:33N 58°58' W 003°18'0 0.2
2014-Jul-18 04:30N 58°58' W 003°18'0 0.0
2014-Jul-18 03:30N 58°58' W 003°18'0 0.0
2014-Jul-18 02:30N 58°58' W 003°18'0 0.0
2014-Jul-18 01:30N 58°58' W 003°18'0 0.0
2014-Jul-18 00:30N 58°58' W 003°18'0 0.0
2014-Jul-17 23:30N 58°58' W 003°18'0 0.0
2014-Jul-17 22:30N 58°58' W 003°18'0 0.0
2014-Jul-17 21:30N 58°58' W 003°18'0 0.0
2014-Jul-17 20:30N 58°58' W 003°18'0 0.0
2014-Jul-17 19:33N 58°58' W 003°18'1313.0
2014-Jul-17 18:33N 58°46' W 003°29'10 9.8
2014-Jul-17 17:33N 58°37' W 003°32'1212.1
2014-Jul-17 16:33N 58°49' W 003°29'11 9.9
2014-Jul-17 15:28N 58°58' W 003°18'0 0.0
2014-Jul-17 14:28N 58°58' W 003°18'2 2.4
2014-Jul-17 13:34N 58°57' W 003°21'1716.9
2014-Jul-17 12:34N 58°41' W 003°31'4 4.0
2014-Jul-17 11:33N 58°37' W 003°32'1616.3
2014-Jul-17 10:33N 58°53' W 003°28'7 7.4
2014-Jul-17 09:33N 58°58' W 003°18'8 8.3
2014-Jul-17 08:33N 58°51' W 003°27'1514.6
2014-Jul-17 07:33N 58°37' W 003°32'7 6.9
2014-Jul-17 06:33N 58°43' W 003°31'1615.7
2014-Jul-17 05:33N 58°57' W 003°18'0 0.3
2014-Jul-17 04:33N 58°58' W 003°18'0 0.0
2014-Jul-17 03:33N 58°58' W 003°18'0 0.0
2014-Jul-17 02:33N 58°58' W 003°18'0 0.0
2014-Jul-17 01:33N 58°58' W 003°18'0 0.0
2014-Jul-17 00:33N 58°58' W 003°18'0 0.0
2014-Jul-16 23:32N 58°58' W 003°18'0 0.0
2014-Jul-16 22:30N 58°58' W 003°18'0 0.0
2014-Jul-16 21:33N 58°58' W 003°18'0 0.0
2014-Jul-16 20:33N 58°58' W 003°18'0 0.0
2014-Jul-16 19:33N 58°58' W 003°18'1414.1
2014-Jul-16 18:33N 58°45' W 003°30'9 8.1
2014-Jul-16 17:29N 58°37' W 003°32'1212.7
2014-Jul-16 16:33N 58°48' W 003°29'1111.0
2014-Jul-16 15:33N 58°58' W 003°18'0 0.0
2014-Jul-16 14:33N 58°58' W 003°18'1 1.0
2014-Jul-16 13:34N 58°57' W 003°18'1616.1
2014-Jul-16 12:33N 58°42' W 003°30'2 2.0
2014-Jul-16 11:21N 58°39' W 003°31'1518.7
2014-Jul-16 10:33N 58°54' W 003°27'6 6.1
2014-Jul-16 09:33N 58°58' W 003°18'8 8.4
2014-Jul-16 08:33N 58°51' W 003°28'1514.8
2014-Jul-16 07:33N 58°37' W 003°32'7 7.2
2014-Jul-16 06:33N 58°44' W 003°30'1515.3
2014-Jul-16 05:33N 58°58' W 003°18'0 0.2
2014-Jul-16 04:33N 58°58' W 003°18'0 0.0
2014-Jul-16 03:33N 58°58' W 003°18'0 0.0
2014-Jul-16 02:33N 58°58' W 003°18'0 0.0
2014-Jul-16 01:33N 58°58' W 003°18'0 0.0
2014-Jul-16 00:33N 58°58' W 003°18'0 0.0
2014-Jul-15 23:33N 58°58' W 003°18'0 0.0
2014-Jul-15 22:33N 58°58' W 003°18'0 0.0
2014-Jul-15 21:33N 58°58' W 003°18'0 0.0
2014-Jul-15 20:33N 58°58' W 003°18'0 0.0
2014-Jul-15 19:33N 58°58' W 003°18'1110.6
2014-Jul-15 18:33N 58°49' W 003°29'1212.3
2014-Jul-15 17:33N 58°37' W 003°32'10 9.6
2014-Jul-15 16:33N 58°46' W 003°30'1313.1
2014-Jul-15 15:33N 58°58' W 003°18'0 0.0
2014-Jul-15 14:33N 58°58' W 003°18'0 0.3
2014-Jul-15 13:34N 58°58' W 003°18'1514.6
2014-Jul-15 12:33N 58°44' W 003°30'8 7.7
2014-Jul-15 11:33N 58°37' W 003°32'1515.1
2014-Jul-15 10:34N 58°52' W 003°28'8 8.2
2014-Jul-15 09:33N 58°58' W 003°18'9 8.7
2014-Jul-15 08:33N 58°51' W 003°29'1514.5
2014-Jul-15 07:33N 58°37' W 003°32'7 6.6
2014-Jul-15 06:33N 58°43' W 003°30'1615.6
2014-Jul-15 05:33N 58°57' W 003°18'1 0.5
2014-Jul-15 04:30N 58°58' W 003°18'0 0.0
2014-Jul-15 03:24N 58°58' W 003°18'0 0.0
2014-Jul-15 02:33N 58°58' W 003°18'0 0.0
2014-Jul-15 01:33N 58°58' W 003°18'0 0.0
2014-Jul-14 21:12N 58°58' W 003°18'0 0.0
2014-Jul-14 20:30N 58°58' W 003°18'0 0.1
2014-Jul-14 19:33N 58°58' W 003°18'1615.7
2014-Jul-14 18:33N 58°43' W 003°30'7 6.8
2014-Jul-14 17:33N 58°37' W 003°32'1110.9
2014-Jul-14 16:33N 58°48' W 003°30'1211.9
2014-Jul-14 15:32N 58°58' W 003°18'0 0.0
2014-Jul-14 14:30N 58°58' W 003°18'1 1.1
2014-Jul-14 13:33N 58°57' W 003°18'1616.0
2014-Jul-14 12:33N 58°42' W 003°30'5 5.4
2014-Jul-14 11:33N 58°37' W 003°32'1818.3
2014-Jul-14 10:33N 58°54' W 003°26'5 4.0
2014-Jul-14 09:11N 58°58' W 003°18'1014.1
2014-Jul-14 08:29N 58°50' W 003°29'0 0.2
2014-Jul-14 06:27N 58°50' W 003°28'10 2.4
2014-Jul-14 02:18N 58°58' W 003°18'0 0.0
2014-Jul-14 01:30N 58°58' W 003°18'0 0.0
2014-Jul-14 00:33N 58°58' W 003°18'0 0.0
2014-Jul-13 23:30N 58°58' W 003°18'0 0.0
2014-Jul-13 22:30N 58°58' W 003°18'0 0.0
2014-Jul-13 21:30N 58°58' W 003°18'0 0.0
2014-Jul-13 20:33N 58°58' W 003°18'0 0.0
2014-Jul-13 19:31N 58°58' W 003°18'1213.0
2014-Jul-13 18:34N 58°47' W 003°30'  
Track history (hours):
 
Tides and Currents Weather Stations Pressure Air Temp Water Temp Dewpoint Dewpoint Depression Visibility Wind Speed Wind Dir Waves Ship Positions

Hamnavoe

Operator: NorthLink Orkey & Shetland Ferries Ltd

Last reported at 2014-Jul-23 17:33 UTC. Time now 2014-Jul-23 18:09 UTC.
Position N 58°37' W 003°32'.

Length 112 m; draft 4.4 m.

Type: Ship. MMSI: 235449000.

Date/timePositionNaut miles runAvg speedWind from/ knotsBaromVisibWave heightAir tempDewpointWater temp
2014-Jul-23 17:33N 58°37' W 003°32'10 9.8
2014-Jul-23 16:33N 58°46' W 003°30'1313.0
2014-Jul-23 15:33N 58°58' W 003°18'0 0.0
2014-Jul-23 14:32N 58°58' W 003°18'0 0.0
2014-Jul-23 13:33N 58°58' W 003°18'1514.7
2014-Jul-23 12:33N 58°44' W 003°30'8 7.7
2014-Jul-23 11:31N 58°37' W 003°32'1515.1
2014-Jul-23 10:33N 58°51' W 003°27'8 8.4
2014-Jul-23 09:34N 58°58' W 003°18'7 7.4
2014-Jul-23 08:34N 58°52' W 003°27'1615.9
2014-Jul-23 07:33N 58°37' W 003°32'6 5.8
2014-Jul-23 06:33N 58°42' W 003°29'1616.1
2014-Jul-23 05:33N 58°57' W 003°17'1 0.8
2014-Jul-23 04:31N 58°58' W 003°18'0 0.0
2014-Jul-23 03:31N 58°58' W 003°18'0 0.0
2014-Jul-23 02:31N 58°58' W 003°18'0 0.0
2014-Jul-23 01:31N 58°58' W 003°18'0 0.0
2014-Jul-23 00:25N 58°58' W 003°18'0 0.0
2014-Jul-22 23:28N 58°58' W 003°18'0 0.0
2014-Jul-22 22:28N 58°58' W 003°18'0 0.0
2014-Jul-22 21:28N 58°58' W 003°18'0 0.0
2014-Jul-22 20:28N 58°58' W 003°18'0 0.0
2014-Jul-22 19:28N 58°58' W 003°18'1112.2
2014-Jul-22 18:33N 58°48' W 003°29'12 8.9
2014-Jul-22 17:15N 58°37' W 003°32'1014.0
2014-Jul-22 16:34N 58°46' W 003°29'1313.0
2014-Jul-22 15:33N 58°58' W 003°18'0 0.0
2014-Jul-22 14:33N 58°58' W 003°18'0 0.1
2014-Jul-22 13:33N 58°58' W 003°18'1515.3
2014-Jul-22 12:33N 58°44' W 003°30'7 7.1
2014-Jul-22 11:33N 58°37' W 003°32'1414.3
2014-Jul-22 10:33N 58°51' W 003°28'9 9.0
2014-Jul-22 09:33N 58°58' W 003°18'6 6.3
2014-Jul-22 08:33N 58°54' W 003°27'1717.2
2014-Jul-22 07:33N 58°37' W 003°32'6 5.7
2014-Jul-22 06:33N 58°42' W 003°30'1616.4
2014-Jul-22 05:33N 58°57' W 003°17'1 0.8
2014-Jul-22 04:33N 58°58' W 003°18'0 0.0
2014-Jul-22 03:33N 58°58' W 003°18'0 0.0
2014-Jul-22 02:33N 58°58' W 003°18'0 0.0
2014-Jul-22 01:33N 58°58' W 003°18'0 0.0
2014-Jul-22 00:33N 58°58' W 003°18'0 0.0
2014-Jul-21 23:33N 58°58' W 003°18'0 0.0
2014-Jul-21 22:33N 58°58' W 003°18'0 0.0
2014-Jul-21 21:33N 58°58' W 003°18'0 0.0
2014-Jul-21 20:33N 58°58' W 003°18'0 0.0
2014-Jul-21 20:18N 58°58' W 003°18'0 0.0
2014-Jul-21 19:33N 58°58' W 003°18'1312.6
2014-Jul-21 18:33N 58°47' W 003°29'10 9.8
2014-Jul-21 17:31N 58°37' W 003°32'1010.9
2014-Jul-21 16:34N 58°47' W 003°29'1212.4
2014-Jul-21 15:34N 58°58' W 003°18'0 0.0
2014-Jul-21 14:34N 58°58' W 003°18'1 1.2
2014-Jul-21 13:33N 58°57' W 003°19'1717.1
2014-Jul-21 12:33N 58°41' W 003°33'5 4.6
2014-Jul-21 11:33N 58°37' W 003°32'1313.5
2014-Jul-21 10:34N 58°50' W 003°28'9 9.3
2014-Jul-21 09:33N 58°58' W 003°18'7 6.8
2014-Jul-21 08:33N 58°53' W 003°27'1716.8
2014-Jul-21 07:33N 58°37' W 003°32'6 5.6
2014-Jul-21 06:33N 58°42' W 003°30'1616.5
2014-Jul-21 05:33N 58°57' W 003°18'1 0.5
2014-Jul-21 04:32N 58°58' W 003°18'0 0.0
2014-Jul-21 03:33N 58°58' W 003°18'0 0.0
2014-Jul-21 02:33N 58°58' W 003°18'0 0.0
2014-Jul-21 01:33N 58°58' W 003°18'0 0.0
2014-Jul-21 00:34N 58°58' W 003°18'0 0.0
2014-Jul-20 23:34N 58°58' W 003°18'0 0.0
2014-Jul-20 22:32N 58°58' W 003°18'0 0.0
2014-Jul-20 21:33N 58°58' W 003°18'0 0.0
2014-Jul-20 20:33N 58°58' W 003°18'0 0.0
2014-Jul-20 19:33N 58°58' W 003°18'1110.6
2014-Jul-20 18:33N 58°49' W 003°29'1212.4
2014-Jul-20 17:33N 58°37' W 003°32'9 8.6
2014-Jul-20 16:33N 58°45' W 003°30'1414.1
2014-Jul-20 15:33N 58°58' W 003°18'0 0.0
2014-Jul-20 14:31N 58°58' W 003°18'0 0.0
2014-Jul-20 13:28N 58°58' W 003°18'0 0.0
2014-Jul-20 12:33N 58°58' W 003°18'1212.0
2014-Jul-20 11:33N 58°47' W 003°29'11 9.6
2014-Jul-20 10:26N 58°37' W 003°32'0 0.0
2014-Jul-20 09:32N 58°37' W 003°32'1515.2
2014-Jul-20 08:33N 58°51' W 003°27'8 8.2
2014-Jul-20 07:33N 58°58' W 003°18'0 0.0
2014-Jul-20 06:33N 58°58' W 003°18'0 0.0
2014-Jul-20 05:33N 58°58' W 003°18'0 0.0
2014-Jul-20 04:33N 58°58' W 003°18'0 0.0
2014-Jul-20 03:33N 58°58' W 003°18'0 0.0
2014-Jul-20 02:33N 58°58' W 003°18'0 0.0
2014-Jul-20 01:33N 58°58' W 003°18'0 0.0
2014-Jul-20 00:33N 58°58' W 003°18'0 0.0
2014-Jul-19 23:33N 58°58' W 003°18'0 0.0
2014-Jul-19 22:33N 58°58' W 003°18'0 0.0
2014-Jul-19 21:33N 58°58' W 003°18'0 0.0
2014-Jul-19 20:32N 58°58' W 003°18'0 0.0
2014-Jul-19 19:33N 58°58' W 003°18'1413.9
2014-Jul-19 18:33N 58°45' W 003°30'9 8.8
2014-Jul-19 17:33N 58°37' W 003°32'1010.5
2014-Jul-19 16:34N 58°47' W 003°29'1212.3
2014-Jul-19 15:33N 58°58' W 003°18'0 0.0
2014-Jul-19 14:33N 58°58' W 003°18'1 1.2
2014-Jul-19 13:33N 58°57' W 003°16'1615.9
2014-Jul-19 12:33N 58°43' W 003°30'6 6.0
2014-Jul-19 11:33N 58°37' W 003°32'1515.4
2014-Jul-19 10:33N 58°52' W 003°27'8 7.9
2014-Jul-19 09:33N 58°58' W 003°18'7 6.5
2014-Jul-19 08:33N 58°53' W 003°27'1715.1
2014-Jul-19 07:25N 58°37' W 003°32'7 8.2
2014-Jul-19 06:33N 58°44' W 003°30'1515.2
2014-Jul-19 05:33N 58°58' W 003°18'0 0.2
2014-Jul-19 04:31N 58°58' W 003°18'0 0.0
2014-Jul-19 03:25N 58°58' W 003°18'0 0.0
2014-Jul-19 02:31N 58°58' W 003°18'0 0.0
2014-Jul-19 01:31N 58°58' W 003°18'0 0.0
2014-Jul-19 00:31N 58°58' W 003°18'0 0.0
2014-Jul-18 23:31N 58°58' W 003°18'0 0.0
2014-Jul-18 22:31N 58°58' W 003°18'0 0.0
2014-Jul-18 21:31N 58°58' W 003°18'0 0.0
2014-Jul-18 20:31N 58°58' W 003°18'0 0.0
2014-Jul-18 19:31N 58°58' W 003°18'1212.6
2014-Jul-18 18:33N 58°47' W 003°29'1110.7
2014-Jul-18 17:33N 58°37' W 003°32'1111.5
2014-Jul-18 16:33N 58°48' W 003°28'1110.8
2014-Jul-18 15:30N 58°58' W 003°18'0 0.0
2014-Jul-18 14:30N 58°58' W 003°18'1 0.6
2014-Jul-18 13:33N 58°57' W 003°18'1615.8
2014-Jul-18 12:33N 58°43' W 003°30'6 6.1
2014-Jul-18 11:31N 58°37' W 003°32'1616.8
2014-Jul-18 10:33N 58°53' W 003°28'7 7.3
2014-Jul-18 09:33N 58°58' W 003°18'8 8.5
2014-Jul-18 08:33N 58°51' W 003°28'8 3.8
2014-Jul-18 06:33N 58°44' W 003°30'1515.2
2014-Jul-18 05:33N 58°58' W 003°18'0 0.2
2014-Jul-18 04:30N 58°58' W 003°18'0 0.0
2014-Jul-18 03:30N 58°58' W 003°18'0 0.0
2014-Jul-18 02:30N 58°58' W 003°18'0 0.0
2014-Jul-18 01:30N 58°58' W 003°18'0 0.0
2014-Jul-18 00:30N 58°58' W 003°18'0 0.0
2014-Jul-17 23:30N 58°58' W 003°18'0 0.0
2014-Jul-17 22:30N 58°58' W 003°18'0 0.0
2014-Jul-17 21:30N 58°58' W 003°18'0 0.0
2014-Jul-17 20:30N 58°58' W 003°18'0 0.0
2014-Jul-17 19:33N 58°58' W 003°18'1313.0
2014-Jul-17 18:33N 58°46' W 003°29'10 9.8
2014-Jul-17 17:33N 58°37' W 003°32'1212.1
2014-Jul-17 16:33N 58°49' W 003°29'11 9.9
2014-Jul-17 15:28N 58°58' W 003°18'0 0.0
2014-Jul-17 14:28N 58°58' W 003°18'2 2.4
2014-Jul-17 13:34N 58°57' W 003°21'1716.9
2014-Jul-17 12:34N 58°41' W 003°31'4 4.0
2014-Jul-17 11:33N 58°37' W 003°32'1616.3
2014-Jul-17 10:33N 58°53' W 003°28'7 7.4
2014-Jul-17 09:33N 58°58' W 003°18'8 8.3
2014-Jul-17 08:33N 58°51' W 003°27'1514.6
2014-Jul-17 07:33N 58°37' W 003°32'7 6.9
2014-Jul-17 06:33N 58°43' W 003°31'1615.7
2014-Jul-17 05:33N 58°57' W 003°18'0 0.3
2014-Jul-17 04:33N 58°58' W 003°18'0 0.0
2014-Jul-17 03:33N 58°58' W 003°18'0 0.0
2014-Jul-17 02:33N 58°58' W 003°18'0 0.0
2014-Jul-17 01:33N 58°58' W 003°18'0 0.0
2014-Jul-17 00:33N 58°58' W 003°18'0 0.0
2014-Jul-16 23:32N 58°58' W 003°18'0 0.0
2014-Jul-16 22:30N 58°58' W 003°18'0 0.0
2014-Jul-16 21:33N 58°58' W 003°18'0 0.0
2014-Jul-16 20:33N 58°58' W 003°18'0 0.0
2014-Jul-16 19:33N 58°58' W 003°18'1414.1
2014-Jul-16 18:33N 58°45' W 003°30'9 8.1
2014-Jul-16 17:29N 58°37' W 003°32'1212.7
2014-Jul-16 16:33N 58°48' W 003°29'1111.0
2014-Jul-16 15:33N 58°58' W 003°18'0 0.0
2014-Jul-16 14:33N 58°58' W 003°18'1 1.0
2014-Jul-16 13:34N 58°57' W 003°18'1616.1
2014-Jul-16 12:33N 58°42' W 003°30'2 2.0
2014-Jul-16 11:21N 58°39' W 003°31'1518.7
2014-Jul-16 10:33N 58°54' W 003°27'6 6.1
2014-Jul-16 09:33N 58°58' W 003°18'8 8.4
2014-Jul-16 08:33N 58°51' W 003°28'1514.8
2014-Jul-16 07:33N 58°37' W 003°32'7 7.2
2014-Jul-16 06:33N 58°44' W 003°30'1515.3
2014-Jul-16 05:33N 58°58' W 003°18'0 0.2
2014-Jul-16 04:33N 58°58' W 003°18'0 0.0
2014-Jul-16 03:33N 58°58' W 003°18'0 0.0
2014-Jul-16 02:33N 58°58' W 003°18'0 0.0
2014-Jul-16 01:33N 58°58' W 003°18'0 0.0
2014-Jul-16 00:33N 58°58' W 003°18'0 0.0
2014-Jul-15 23:33N 58°58' W 003°18'0 0.0
2014-Jul-15 22:33N 58°58' W 003°18'0 0.0
2014-Jul-15 21:33N 58°58' W 003°18'0 0.0
2014-Jul-15 20:33N 58°58' W 003°18'0 0.0
2014-Jul-15 19:33N 58°58' W 003°18'1110.6
2014-Jul-15 18:33N 58°49' W 003°29'1212.3
2014-Jul-15 17:33N 58°37' W 003°32'10 9.6
2014-Jul-15 16:33N 58°46' W 003°30'1313.1
2014-Jul-15 15:33N 58°58' W 003°18'0 0.0
2014-Jul-15 14:33N 58°58' W 003°18'0 0.3
2014-Jul-15 13:34N 58°58' W 003°18'1514.6
2014-Jul-15 12:33N 58°44' W 003°30'8 7.7
2014-Jul-15 11:33N 58°37' W 003°32'1515.1
2014-Jul-15 10:34N 58°52' W 003°28'8 8.2
2014-Jul-15 09:33N 58°58' W 003°18'9 8.7
2014-Jul-15 08:33N 58°51' W 003°29'1514.5
2014-Jul-15 07:33N 58°37' W 003°32'7 6.6
2014-Jul-15 06:33N 58°43' W 003°30'1615.6
2014-Jul-15 05:33N 58°57' W 003°18'1 0.5
2014-Jul-15 04:30N 58°58' W 003°18'0 0.0
2014-Jul-15 03:24N 58°58' W 003°18'0 0.0
2014-Jul-15 02:33N 58°58' W 003°18'0 0.0
2014-Jul-15 01:33N 58°58' W 003°18'0 0.0
2014-Jul-14 21:12N 58°58' W 003°18'0 0.0
2014-Jul-14 20:30N 58°58' W 003°18'0 0.1
2014-Jul-14 19:33N 58°58' W 003°18'1615.7
2014-Jul-14 18:33N 58°43' W 003°30'7 6.8
2014-Jul-14 17:33N 58°37' W 003°32'1110.9
2014-Jul-14 16:33N 58°48' W 003°30'1211.9
2014-Jul-14 15:32N 58°58' W 003°18'0 0.0
2014-Jul-14 14:30N 58°58' W 003°18'1 1.1
2014-Jul-14 13:33N 58°57' W 003°18'1616.0
2014-Jul-14 12:33N 58°42' W 003°30'5 5.4
2014-Jul-14 11:33N 58°37' W 003°32'1818.3
2014-Jul-14 10:33N 58°54' W 003°26'5 4.0
2014-Jul-14 09:11N 58°58' W 003°18'1014.1
2014-Jul-14 08:29N 58°50' W 003°29'0 0.2
2014-Jul-14 06:27N 58°50' W 003°28'10 2.4
2014-Jul-14 02:18N 58°58' W 003°18'0 0.0
2014-Jul-14 01:30N 58°58' W 003°18'0 0.0
2014-Jul-14 00:33N 58°58' W 003°18'0 0.0
2014-Jul-13 23:30N 58°58' W 003°18'0 0.0
2014-Jul-13 22:30N 58°58' W 003°18'0 0.0
2014-Jul-13 21:30N 58°58' W 003°18'0 0.0
2014-Jul-13 20:33N 58°58' W 003°18'0 0.0
2014-Jul-13 19:31N 58°58' W 003°18'1213.0
2014-Jul-13 18:34N 58°47' W 003°30'  

Dump ship's entire track history